createdAt,value
2023-03-26T00:02:13.367Z,14.50
2023-03-26T00:04:42.615Z,14.60
2023-03-26T00:07:10.717Z,14.80
2023-03-26T00:09:38.049Z,14.70
2023-03-26T00:12:04.842Z,14.50
2023-03-26T00:14:32.752Z,14.40
2023-03-26T00:16:59.578Z,14.40
2023-03-26T00:19:27.909Z,14.40
2023-03-26T00:22:14.206Z,14.40
2023-03-26T00:24:40.985Z,14.40
2023-03-26T00:27:08.844Z,14.40
2023-03-26T00:29:35.743Z,14.30
2023-03-26T00:32:02.490Z,14.20
2023-03-26T00:34:29.200Z,14.20
2023-03-26T00:36:56.036Z,14.20
2023-03-26T00:39:24.103Z,14.20
2023-03-26T00:41:54.699Z,14.20
2023-03-26T00:44:21.995Z,14.20
2023-03-26T00:46:48.693Z,14.20
2023-03-26T00:49:15.401Z,14.20
2023-03-26T00:51:42.274Z,14.10
2023-03-26T00:54:08.988Z,14.10
2023-03-26T00:56:35.937Z,14.00
2023-03-26T00:59:02.844Z,14.00
2023-03-26T01:01:30.742Z,14.10
2023-03-26T01:04:08.928Z,14.10
2023-03-26T01:06:38.719Z,13.90
2023-03-26T01:09:12.746Z,13.80
2023-03-26T01:11:39.667Z,13.80
2023-03-26T01:14:08.652Z,13.90
2023-03-26T01:16:38.250Z,13.90
2023-03-26T01:19:13.038Z,13.90
2023-03-26T01:21:39.835Z,13.80
2023-03-26T01:24:07.606Z,13.70
2023-03-26T01:26:50.093Z,13.70
2023-03-26T01:29:34.162Z,13.70
2023-03-26T01:32:00.947Z,13.70
2023-03-26T01:34:53.930Z,13.60
2023-03-26T01:37:34.594Z,13.70
2023-03-26T01:40:06.937Z,13.80
2023-03-26T01:42:39.997Z,13.90
2023-03-26T01:45:06.792Z,13.70
2023-03-26T01:50:19.161Z,13.60
2023-03-26T01:52:45.940Z,13.70
2023-03-26T01:55:14.386Z,13.60
2023-03-26T01:57:44.216Z,13.50
2023-03-26T02:00:18.232Z,13.70
2023-03-26T02:02:45.096Z,13.70
2023-03-26T02:05:15.312Z,13.60
2023-03-26T02:07:44.790Z,13.50
2023-03-26T02:10:17.145Z,13.50
2023-03-26T02:12:44.517Z,13.60
2023-03-26T02:15:12.202Z,13.80
2023-03-26T02:20:42.189Z,14.10
2023-03-26T02:23:09.055Z,14.00
2023-03-26T02:25:39.801Z,13.80
2023-03-26T02:28:25.138Z,13.70
2023-03-26T02:30:52.513Z,13.70
2023-03-26T02:33:19.296Z,13.80
2023-03-26T02:35:46.152Z,13.80
2023-03-26T02:38:14.575Z,13.80
2023-03-26T02:40:41.813Z,13.80
2023-03-26T02:43:08.773Z,13.60
2023-03-26T02:45:35.518Z,13.50
2023-03-26T02:48:02.428Z,13.60
2023-03-26T02:50:32.632Z,13.60
2023-03-26T02:52:59.377Z,13.60
2023-03-26T02:55:26.246Z,13.60
2023-03-26T02:57:53.066Z,13.50
2023-03-26T03:00:22.634Z,13.50
2023-03-26T03:02:49.785Z,13.50
2023-03-26T03:05:18.746Z,13.50
2023-03-26T03:13:16.668Z,13.40
2023-03-26T03:15:44.286Z,13.50
2023-03-26T03:18:11.159Z,13.50
2023-03-26T03:20:38.044Z,13.40
2023-03-26T03:23:04.834Z,13.40
2023-03-26T03:25:32.564Z,13.60
2023-03-26T03:27:59.350Z,13.50
2023-03-26T03:30:26.187Z,13.40
2023-03-26T03:32:52.977Z,13.40
2023-03-26T03:35:19.740Z,13.50
2023-03-26T03:38:05.448Z,13.40
2023-03-26T03:40:32.196Z,13.60
2023-03-26T03:42:58.980Z,13.60
2023-03-26T03:45:44.282Z,13.70
2023-03-26T03:50:56.314Z,13.50
2023-03-26T03:53:26.144Z,13.50
2023-03-26T03:55:56.864Z,13.50
2023-03-26T03:58:25.299Z,13.50
2023-03-26T04:00:52.612Z,13.50
2023-03-26T04:03:20.258Z,13.50
2023-03-26T04:06:01.585Z,13.50
2023-03-26T04:08:28.406Z,13.60
2023-03-26T04:10:55.235Z,13.60
2023-03-26T04:13:22.057Z,13.50
2023-03-26T04:15:48.899Z,13.50
2023-03-26T04:18:15.715Z,13.50
2023-03-26T04:20:46.831Z,13.40
2023-03-26T04:23:14.376Z,13.30
2023-03-26T04:26:04.025Z,13.20
2023-03-26T04:28:33.946Z,13.20
2023-03-26T04:31:01.333Z,13.30
2023-03-26T04:33:29.201Z,13.50
2023-03-26T04:36:01.655Z,13.40
2023-03-26T04:38:40.859Z,13.40
2023-03-26T04:41:07.840Z,13.40
2023-03-26T04:43:35.684Z,13.50
2023-03-26T04:46:05.612Z,13.50
2023-03-26T04:48:32.800Z,13.70
2023-03-26T04:50:59.611Z,13.50
2023-03-26T04:53:26.379Z,13.60
2023-03-26T04:55:59.924Z,13.70
2023-03-26T04:58:32.759Z,13.70
2023-03-26T05:01:09.900Z,13.80
2023-03-26T05:03:39.260Z,13.90
2023-03-26T05:06:30.005Z,14.00
2023-03-26T05:08:56.692Z,14.20
2023-03-26T05:11:23.426Z,14.20
2023-03-26T05:13:50.176Z,14.30
2023-03-26T05:16:17.017Z,14.40
2023-03-26T05:18:43.777Z,14.50
2023-03-26T05:21:11.311Z,14.50
2023-03-26T05:23:38.048Z,14.50
2023-03-26T05:26:04.891Z,14.40
2023-03-26T05:28:31.734Z,14.50
2023-03-26T05:30:58.660Z,14.50
2023-03-26T05:33:25.895Z,14.40
2023-03-26T05:36:00.261Z,14.40
2023-03-26T05:38:29.004Z,14.40
2023-03-26T05:41:02.964Z,14.40
2023-03-26T05:43:29.719Z,14.50
2023-03-26T05:45:56.610Z,14.50
2023-03-26T05:48:23.689Z,14.40
2023-03-26T05:50:50.977Z,14.50
2023-03-26T05:53:18.444Z,14.50
2023-03-26T05:55:45.980Z,14.60
2023-03-26T05:58:13.135Z,14.60
2023-03-26T06:00:39.854Z,14.60
2023-03-26T06:06:10.003Z,14.50
2023-03-26T06:08:36.794Z,14.50
2023-03-26T06:13:57.308Z,14.10
2023-03-26T06:16:28.366Z,14.10
2023-03-26T06:18:56.860Z,14.20
2023-03-26T06:21:42.917Z,14.20
2023-03-26T06:24:09.675Z,14.20
2023-03-26T06:26:54.753Z,14.40
2023-03-26T06:29:21.585Z,14.30
2023-03-26T06:31:48.644Z,14.30
2023-03-26T06:34:34.310Z,14.30
2023-03-26T06:37:01.077Z,14.20
2023-03-26T06:39:27.870Z,14.10
2023-03-26T06:44:39.148Z,14.20
2023-03-26T06:47:06.004Z,14.30
2023-03-26T06:49:34.407Z,14.40
2023-03-26T06:54:46.953Z,14.70
2023-03-26T06:57:13.814Z,14.60
2023-03-26T06:59:40.593Z,14.60
2023-03-26T07:02:07.705Z,14.60
2023-03-26T07:04:34.602Z,14.50
2023-03-26T07:07:01.421Z,14.50
2023-03-26T07:09:30.452Z,14.60
2023-03-26T07:14:41.277Z,14.50
2023-03-26T07:17:08.189Z,14.40
2023-03-26T07:19:54.266Z,14.30
2023-03-26T07:22:22.557Z,14.20
2023-03-26T07:24:49.814Z,14.40
2023-03-26T07:27:16.599Z,14.40
2023-03-26T07:29:56.831Z,14.30
2023-03-26T07:32:47.864Z,14.20
2023-03-26T07:35:23.989Z,14.20
2023-03-26T07:38:09.255Z,14.40
2023-03-26T07:40:42.060Z,14.40
2023-03-26T07:43:11.741Z,14.50
2023-03-26T07:48:40.819Z,14.40
2023-03-26T07:51:08.025Z,14.40
2023-03-26T07:53:34.947Z,14.40
2023-03-26T07:56:10.855Z,14.50
2023-03-26T07:58:46.695Z,14.50
2023-03-26T08:01:32.089Z,14.50
2023-03-26T08:04:24.575Z,14.40
2023-03-26T08:06:53.236Z,14.50
2023-03-26T08:09:27.663Z,14.50
2023-03-26T08:11:58.403Z,14.50
2023-03-26T08:14:51.315Z,14.50
2023-03-26T08:17:31.105Z,14.60
2023-03-26T08:20:17.094Z,14.60
2023-03-26T08:22:50.917Z,14.60
2023-03-26T08:25:24.387Z,14.60
2023-03-26T08:27:57.248Z,14.60
2023-03-26T08:30:24.790Z,14.60
2023-03-26T08:35:44.053Z,14.70
2023-03-26T08:38:12.276Z,14.80
2023-03-26T08:40:49.462Z,14.80
2023-03-26T08:43:27.835Z,14.80
2023-03-26T08:46:11.114Z,14.80
2023-03-26T08:48:56.658Z,14.90
2023-03-26T08:52:00.868Z,14.90
2023-03-26T08:54:39.819Z,14.90
2023-03-26T08:57:23.672Z,15.00
2023-03-26T09:00:11.332Z,15.00
2023-03-26T09:02:44.219Z,14.90
2023-03-26T09:05:11.107Z,15.10
2023-03-26T09:08:07.328Z,15.00
2023-03-26T09:10:43.224Z,15.00
2023-03-26T09:13:18.413Z,15.10
2023-03-26T09:21:37.671Z,15.10
2023-03-26T09:24:06.944Z,15.20
2023-03-26T09:26:58.162Z,15.10
2023-03-26T09:29:46.948Z,15.20
2023-03-26T09:32:32.112Z,15.20
2023-03-26T09:34:58.872Z,15.20
2023-03-26T09:37:57.081Z,15.10
2023-03-26T09:40:31.900Z,15.10
2023-03-26T09:42:59.485Z,15.20
2023-03-26T09:45:45.081Z,15.20
2023-03-26T09:48:45.756Z,15.30
2023-03-26T09:51:19.058Z,15.30
2023-03-26T09:53:45.875Z,15.20
2023-03-26T09:56:31.569Z,15.20
2023-03-26T09:59:17.198Z,15.30
2023-03-26T10:02:04.369Z,15.40
2023-03-26T10:04:38.629Z,15.40
2023-03-26T10:07:17.841Z,15.50
2023-03-26T10:10:03.386Z,15.50
2023-03-26T10:12:36.696Z,15.50
2023-03-26T10:15:03.399Z,15.40
2023-03-26T10:17:42.717Z,15.50
2023-03-26T10:20:13.103Z,15.60
2023-03-26T10:22:56.745Z,15.60
2023-03-26T10:25:26.327Z,15.50
2023-03-26T10:30:56.733Z,15.60
2023-03-26T10:33:42.553Z,15.60
2023-03-26T10:36:29.958Z,15.50
2023-03-26T10:38:59.566Z,15.60
2023-03-26T10:41:31.097Z,15.70
2023-03-26T10:44:08.778Z,15.70
2023-03-26T10:46:36.115Z,15.60
2023-03-26T10:49:12.004Z,15.60
2023-03-26T10:51:57.491Z,15.60
2023-03-26T10:54:35.735Z,15.60
2023-03-26T10:57:06.454Z,15.70
2023-03-26T10:59:33.271Z,15.80
2023-03-26T11:02:18.790Z,15.80
2023-03-26T11:05:15.748Z,15.80
2023-03-26T11:08:01.126Z,15.80
2023-03-26T11:10:54.183Z,15.80
2023-03-26T11:13:26.900Z,15.80
2023-03-26T11:15:58.133Z,15.90
2023-03-26T11:18:43.457Z,15.90
2023-03-26T11:21:18.891Z,15.90
2023-03-26T11:26:40.652Z,15.90
2023-03-26T11:29:31.361Z,16.00
2023-03-26T11:32:15.627Z,16.00
2023-03-26T11:35:02.628Z,16.00
2023-03-26T11:37:29.500Z,16.10
2023-03-26T11:39:58.757Z,16.10
2023-03-26T11:42:25.803Z,16.10
2023-03-26T11:44:56.547Z,16.10
2023-03-26T11:47:26.776Z,16.20
2023-03-26T11:49:55.247Z,16.20
2023-03-26T11:52:41.090Z,16.30
2023-03-26T11:55:11.302Z,16.30
2023-03-26T11:57:58.485Z,16.30
2023-03-26T12:00:27.615Z,16.20
2023-03-26T12:02:58.615Z,16.20
2023-03-26T12:05:26.757Z,16.20
2023-03-26T12:07:54.808Z,16.20
2023-03-26T12:10:23.379Z,16.30
2023-03-26T12:12:52.022Z,16.20
2023-03-26T12:15:20.048Z,16.20
2023-03-26T12:17:48.008Z,16.30
2023-03-26T12:20:33.409Z,16.30
2023-03-26T12:23:01.726Z,16.10
2023-03-26T12:25:30.336Z,16.00
2023-03-26T12:28:03.099Z,16.10
2023-03-26T12:30:31.277Z,16.20
2023-03-26T12:33:16.890Z,16.20
2023-03-26T12:35:44.174Z,16.20
2023-03-26T12:38:13.969Z,16.20
2023-03-26T12:40:42.744Z,16.10
2023-03-26T12:44:53.797Z,16.00
2023-03-26T12:47:56.896Z,16.10
2023-03-26T12:49:19.133Z,16.20
2023-03-26T12:51:46.016Z,16.20
2023-03-26T12:54:33.195Z,16.20
2023-03-26T13:00:12.326Z,16.40
2023-03-26T13:02:59.137Z,16.40
2023-03-26T13:05:41.784Z,16.40
2023-03-26T13:08:14.604Z,16.50
2023-03-26T13:11:00.141Z,16.50
2023-03-26T13:13:47.867Z,16.50
2023-03-26T13:16:33.427Z,16.40
2023-03-26T13:19:05.653Z,16.30
2023-03-26T13:21:54.031Z,16.20
2023-03-26T13:24:41.794Z,16.20
2023-03-26T13:27:26.982Z,16.20
2023-03-26T13:29:59.669Z,16.20
2023-03-26T13:32:32.891Z,16.00
2023-03-26T13:35:08.964Z,15.90
2023-03-26T13:37:59.045Z,15.90
2023-03-26T13:40:25.922Z,15.80
2023-03-26T13:43:06.066Z,15.80
2023-03-26T13:45:51.592Z,15.80
2023-03-26T13:48:21.435Z,15.80
2023-03-26T13:50:57.267Z,15.80
2023-03-26T13:53:31.716Z,15.80
2023-03-26T13:55:59.941Z,15.80
2023-03-26T13:58:38.635Z,15.80
2023-03-26T14:01:08.268Z,15.80
2023-03-26T14:03:43.273Z,15.80
2023-03-26T14:06:18.602Z,15.80
2023-03-26T14:08:47.593Z,15.80
2023-03-26T14:11:17.653Z,15.80
2023-03-26T14:13:47.398Z,15.80
2023-03-26T14:16:17.216Z,15.80
2023-03-26T14:19:04.832Z,15.70
2023-03-26T14:24:51.579Z,15.70
2023-03-26T14:27:34.186Z,15.70
2023-03-26T14:30:04.171Z,15.80
2023-03-26T14:32:42.858Z,15.80
2023-03-26T14:35:20.455Z,15.80
2023-03-26T14:37:53.118Z,15.80
2023-03-26T14:40:19.924Z,15.80
2023-03-26T14:43:01.933Z,15.70
2023-03-26T14:45:40.833Z,15.70
2023-03-26T14:48:31.625Z,15.70
2023-03-26T14:51:17.180Z,15.60
2023-03-26T14:54:02.676Z,15.40
2023-03-26T14:56:41.274Z,15.40
2023-03-26T14:59:11.259Z,15.40
2023-03-26T15:01:57.016Z,15.30
2023-03-26T15:04:39.006Z,15.20
2023-03-26T15:07:05.866Z,15.20
2023-03-26T15:09:51.098Z,15.10
2023-03-26T15:12:20.933Z,15.20
2023-03-26T15:14:59.809Z,15.20
2023-03-26T15:17:45.792Z,15.10
2023-03-26T15:23:22.239Z,15.00
2023-03-26T15:25:58.080Z,15.00
2023-03-26T15:28:24.926Z,15.00
2023-03-26T15:31:23.944Z,14.90
2023-03-26T15:34:09.555Z,14.80
2023-03-26T15:36:54.332Z,14.80
2023-03-26T15:39:21.060Z,14.80
2023-03-26T15:41:55.549Z,14.70
2023-03-26T15:44:43.746Z,14.70
2023-03-26T15:47:31.561Z,14.70
2023-03-26T15:55:53.849Z,14.70
2023-03-26T15:58:36.820Z,14.70
2023-03-26T16:01:19.957Z,14.70
2023-03-26T16:03:49.730Z,14.70
2023-03-26T16:06:28.089Z,14.70
2023-03-26T16:09:04.780Z,14.70
2023-03-26T16:11:50.397Z,14.70
2023-03-26T16:14:17.418Z,14.60
2023-03-26T16:17:09.033Z,14.60
2023-03-26T16:19:49.078Z,14.60
2023-03-26T16:22:42.803Z,14.60
2023-03-26T16:25:30.585Z,14.60
2023-03-26T16:28:34.966Z,14.60
2023-03-26T16:31:23.653Z,14.80
2023-03-26T16:34:09.278Z,14.90
2023-03-26T16:36:36.569Z,14.70
2023-03-26T16:39:06.180Z,14.80
2023-03-26T16:41:34.076Z,14.70
2023-03-26T16:44:13.860Z,14.80
2023-03-26T16:46:56.630Z,14.90
2023-03-26T16:49:36.002Z,14.70
2023-03-26T16:52:40.578Z,14.50
2023-03-26T16:55:13.650Z,14.50
2023-03-26T16:57:59.145Z,14.50
2023-03-26T17:00:34.704Z,14.50
2023-03-26T17:03:13.303Z,14.40
2023-03-26T17:05:49.231Z,14.40
2023-03-26T17:08:16.472Z,14.20
2023-03-26T17:11:01.979Z,14.20
2023-03-26T17:13:47.143Z,14.30
2023-03-26T17:16:23.005Z,14.40
2023-03-26T17:18:49.895Z,14.50
2023-03-26T17:21:46.023Z,14.60
2023-03-26T17:24:26.738Z,14.60
2023-03-26T17:29:58.267Z,14.60
2023-03-26T17:32:45.494Z,14.60
2023-03-26T17:35:13.945Z,14.60
2023-03-26T17:37:47.797Z,14.60
2023-03-26T17:40:29.135Z,14.60
2023-03-26T17:43:14.606Z,14.60
2023-03-26T17:45:43.800Z,14.60
2023-03-26T17:48:10.701Z,14.70
2023-03-26T17:53:24.808Z,14.70
2023-03-26T17:55:52.140Z,14.70
2023-03-26T17:58:24.325Z,14.70
2023-03-26T18:00:52.934Z,14.70
2023-03-26T18:03:21.176Z,14.80
2023-03-26T18:05:49.262Z,14.70
2023-03-26T18:08:18.914Z,14.70
2023-03-26T18:10:51.813Z,14.70
2023-03-26T18:13:37.369Z,14.60
2023-03-26T18:16:13.474Z,14.60
2023-03-26T18:18:59.232Z,14.60
2023-03-26T18:21:39.698Z,14.60
2023-03-26T18:24:25.203Z,14.60
2023-03-26T18:26:56.767Z,14.70
2023-03-26T18:29:25.188Z,14.60
2023-03-26T18:31:57.742Z,14.60
2023-03-26T18:34:44.033Z,14.60
2023-03-26T18:37:11.257Z,14.50
2023-03-26T18:39:56.651Z,14.60
2023-03-26T18:42:25.082Z,14.50
2023-03-26T18:44:53.130Z,14.50
2023-03-26T18:47:20.551Z,14.40
2023-03-26T18:49:49.183Z,14.40
2023-03-26T18:52:34.475Z,14.30
2023-03-26T18:55:02.524Z,14.30
2023-03-26T18:57:29.503Z,14.30
2023-03-26T19:00:08.844Z,14.30
2023-03-26T19:02:54.011Z,14.30
2023-03-26T19:05:21.131Z,14.30
2023-03-26T19:07:48.027Z,14.30
2023-03-26T19:10:16.331Z,14.30
2023-03-26T19:12:43.232Z,14.20
2023-03-26T19:15:12.220Z,14.20
2023-03-26T19:17:41.385Z,14.20
2023-03-26T19:20:13.155Z,14.20
2023-03-26T19:22:42.327Z,14.20
2023-03-26T19:25:17.250Z,14.10
2023-03-26T19:27:44.094Z,14.10
2023-03-26T19:30:17.291Z,14.10
2023-03-26T19:33:12.899Z,14.20
2023-03-26T19:35:58.849Z,14.20
2023-03-26T19:38:29.467Z,14.20
2023-03-26T19:40:57.520Z,14.20
2023-03-26T19:43:25.864Z,14.20
2023-03-26T19:46:00.165Z,14.10
2023-03-26T19:51:18.753Z,14.10
2023-03-26T19:51:41.483Z,14.10
2023-03-26T19:54:16.122Z,14.10
2023-03-26T19:56:43.620Z,14.10
2023-03-26T19:59:10.429Z,14.00
2023-03-26T20:01:37.637Z,14.00
2023-03-26T20:04:06.345Z,14.00
2023-03-26T20:09:25.962Z,14.00
2023-03-26T20:11:54.269Z,14.00
2023-03-26T20:14:25.881Z,14.10
2023-03-26T20:16:52.962Z,14.10
2023-03-26T20:19:20.595Z,14.20
2023-03-26T20:21:47.469Z,14.20
2023-03-26T20:24:15.782Z,14.10
2023-03-26T20:29:28.682Z,14.10
2023-03-26T20:34:58.447Z,14.20
2023-03-26T20:37:44.349Z,14.20
2023-03-26T20:40:14.290Z,14.20
2023-03-26T20:42:42.612Z,14.30
2023-03-26T20:45:14.716Z,14.30
2023-03-26T20:47:42.360Z,14.40
2023-03-26T20:50:10.337Z,14.30
2023-03-26T20:52:37.486Z,14.40
2023-03-26T20:55:04.854Z,14.50
2023-03-26T20:57:33.615Z,14.50
2023-03-26T21:00:00.668Z,14.50
2023-03-26T21:02:27.464Z,14.50
2023-03-26T21:04:54.242Z,14.50
2023-03-26T21:07:21.162Z,14.50
2023-03-26T21:09:48.717Z,14.50
2023-03-26T21:12:25.218Z,14.50
2023-03-26T21:17:37.203Z,14.60
2023-03-26T21:20:14.833Z,14.60
2023-03-26T21:22:43.463Z,14.30
2023-03-26T21:25:19.730Z,14.00
2023-03-26T21:27:46.678Z,14.00
2023-03-26T21:30:16.428Z,14.00
2023-03-26T21:32:44.929Z,13.90
2023-03-26T21:35:13.784Z,13.90
2023-03-26T21:37:43.043Z,14.00
2023-03-26T21:40:16.972Z,13.90
2023-03-26T21:42:44.887Z,14.00
2023-03-26T21:45:12.219Z,14.20
2023-03-26T21:47:39.282Z,14.30
2023-03-26T21:50:06.527Z,14.50
2023-03-26T21:52:33.417Z,14.40
2023-03-26T21:55:01.037Z,14.40
2023-03-26T21:57:30.967Z,14.30
2023-03-26T22:00:23.870Z,14.20
2023-03-26T22:03:01.467Z,14.10
2023-03-26T22:05:47.197Z,14.00
2023-03-26T22:08:32.712Z,14.10
2023-03-26T22:13:43.673Z,14.20
2023-03-26T22:18:55.078Z,14.10
2023-03-26T22:21:23.639Z,14.10
2023-03-26T22:23:52.858Z,14.10
2023-03-26T22:26:21.131Z,14.00
2023-03-26T22:28:48.347Z,14.00
2023-03-26T22:33:59.386Z,13.90
2023-03-26T22:36:27.381Z,14.00
2023-03-26T22:38:54.794Z,13.90
2023-03-26T22:41:22.265Z,14.00
2023-03-26T22:43:52.088Z,14.10
2023-03-26T22:46:19.693Z,14.00
2023-03-26T22:48:48.324Z,14.10
2023-03-26T22:51:15.272Z,14.20
2023-03-26T22:53:42.002Z,14.20
2023-03-26T22:56:27.691Z,14.20
2023-03-26T22:58:54.416Z,14.20
2023-03-26T23:01:22.991Z,14.30
2023-03-26T23:03:50.177Z,14.30
2023-03-26T23:06:17.198Z,14.20
2023-03-26T23:08:43.982Z,14.10
2023-03-26T23:11:17.987Z,13.70
2023-03-26T23:13:45.410Z,13.50
2023-03-26T23:18:56.257Z,13.30
2023-03-26T23:21:23.035Z,13.30
2023-03-26T23:23:51.639Z,13.30
2023-03-26T23:26:18.450Z,13.20
2023-03-26T23:28:45.318Z,13.40
2023-03-26T23:31:12.778Z,13.40
2023-03-26T23:33:46.551Z,13.60
2023-03-26T23:39:02.519Z,14.00
2023-03-26T23:41:29.303Z,14.20
2023-03-26T23:43:56.217Z,14.20
2023-03-26T23:46:24.527Z,14.30
2023-03-26T23:48:52.504Z,14.40
2023-03-26T23:51:22.533Z,14.40
2023-03-26T23:53:49.663Z,14.40
2023-03-26T23:56:16.858Z,14.30
2023-03-26T23:58:43.873Z,14.30
